TAF KALI
KALI 270520Z 2706/2806 01009KT P6SM FEW060 FM270800 36005KT P6SM BKN035 FM271400 02006KT 5SM -RA BR OVC020=
METAR KALI
KALI 261953Z AUTO 03008KT 10SM CLR 18/03 A3024 RMK AO2 SLP237 T01780033 ?
KALI 261853Z AUTO 01010KT 10SM CLR 17/03 A3028 RMK AO2 SLP253 T01670033 ?
KALI 261753Z AUTO 02007KT 10SM CLR 16/03 A3032 RMK AO2 SLP265 6//// T01610033 10161 20106 58017 ?
KALI 261653Z AUTO 03008KT 10SM CLR 14/02 A3036 RMK AO2 SLP278 T01440022 ?
KALI 261553Z AUTO 01012G17KT 10SM CLR 14/02 A3038 RMK AO2 SLP285 T01390017 ?
WC KALI
WS KALI
WV KALI